Terminal Aerodrome Forecast
Issued by NWS

Home | Current Version | Previous Version | Graphics & Text | Print | Product List | Glossary On
Versions: 1 2 3 4 5 6 7 8 9 10 11 12 13 14 15 16
000
FTUS43 KABR 182300
TAFPIR
TAF
KPIR 182320Z 1900/1924 18015KT P6SM BKN150
     FM191000 18012KT P6SM BKN020
     FM191500 25008KT P6SM SCT020
     FM191800 29008KT P6SM BKN250=

USA.gov is the U.S. government's official web portal to all federal, state and local government web resources and services.